Latest Weather Observations for King Island Airport

IDT60801

Issued at 5:05 am EST Thursday 31 July 2014 (issued every 30 minutes, with the page automatically refreshed every 10 minutes)

About weather observations | Map of weather stations | Latest weather observations for TAS | Other Formats
Station Details ID: 098017 Name: KING ISLAND AIRPORT Lat: -39.88 Lon: 143.88 Height: 37.0 m
Data from the previous 72 hours. | See also: Recent months at King Island Airport
Date/Time
EST
Temp
°C
App
Temp
°C
Dew
Point
Rel
Hum
%
Delta-T
°C
Wind Press
QNH
hPa
Press
MSL
hPa
Rain
since 9 am
mm
Dir
 
Spd
km/h
Gust
km/h
Spd
kts
Gust
kts
31/05:00am 13.4 1.8 11.3 87 1.1 NNW 63 82 34 44 994.7 994.7 12.8
31/04:30am 13.4 2.2 11.1 86 1.2 NNW 61 80 33 43 995.1 - 12.8
31/04:00am 13.5 0.5 11.0 85 1.3 NNW 70 95 38 51 995.6 995.6 12.8
31/03:53am 13.6 1.7 11.3 86 1.2 NNW 65 83 35 45 995.6 - 12.8
31/03:38am 13.3 1.4 11.5 89 1.0 NNW 65 85 35 46 996.0 - 12.6
31/03:30am 13.6 2.0 11.3 86 1.2 NNW 63 82 34 44 996.2 - 12.4
31/03:11am 13.3 2.6 11.5 89 1.0 NNW 59 80 32 43 996.7 - 12.2
31/03:00am 13.1 3.0 11.8 92 0.7 NW 56 72 30 39 997.1 997.1 12.0
31/02:30am 13.0 3.4 12.1 94 0.5 NW 54 80 29 43 997.7 - 9.2
31/02:04am 13.2 3.2 12.1 93 0.6 NNW 56 74 30 40 998.1 - 6.8
31/02:00am 13.2 3.2 12.1 93 0.6 NNW 56 72 30 39 998.1 998.1 6.8
31/01:30am 13.7 2.3 11.7 88 1.1 NW 63 82 34 44 998.6 - 6.2
31/01:26am 13.8 2.4 11.7 87 1.1 NNW 63 82 34 44 998.7 - 6.0
31/01:00am 14.2 2.2 11.2 82 1.6 NW 65 83 35 45 999.0 999.0 5.8
31/12:30am 14.1 2.6 11.4 84 1.4 NW 63 83 34 45 999.4 - 5.8
31/12:00am 14.1 3.4 11.6 85 1.3 NW 59 80 32 43 999.6 999.6 5.8
 
Date/Time
EST
Temp
°C
App
Temp
°C
Dew
Point
Rel
Hum
%
Delta-T
°C
Wind Press
QNH
hPa
Press
MSL
hPa
Rain
since 9 am
mm
Dir
 
Spd
km/h
Gust
km/h
Spd
kts
Gust
kts
30/11:30pm 13.4 3.5 12.3 93 0.6 NW 56 89 30 48 999.9 - 5.8
30/11:09pm 13.1 3.5 12.2 94 0.5 NW 54 72 29 39 1000.4 - 5.8
30/11:00pm 13.0 3.8 12.2 95 0.4 NW 52 69 28 37 1000.6 1000.6 5.8
30/10:33pm 13.1 1.5 12.3 95 0.4 NW 65 83 35 45 1001.2 - 5.6
30/10:30pm 13.1 0.7 12.2 94 0.5 NW 69 83 37 45 1001.2 - 5.4
30/10:27pm 13.4 0.8 12.3 93 0.6 NW 70 83 38 45 1001.2 - 5.0
30/10:16pm 13.1 3.8 12.0 93 0.6 NW 52 70 28 38 1000.9 - 2.8
30/10:00pm 13.0 2.9 11.6 91 0.7 NW 56 70 30 38 1001.2 1001.3 2.2
30/09:38pm 13.0 4.4 11.7 92 0.7 NW 48 69 26 37 1001.7 - 2.0
30/09:30pm 13.0 4.4 11.7 92 0.7 NW 48 63 26 34 1001.8 - 2.0
30/09:02pm 13.5 4.2 11.7 89 1.0 NW 52 70 28 38 1002.3 - 1.4
30/09:00pm 13.4 3.7 11.8 90 0.9 NW 54 70 29 38 1002.3 1002.4 1.4
30/08:50pm 13.6 3.4 11.5 87 1.1 NW 56 80 30 43 1002.5 - 1.4
30/08:38pm 13.9 2.2 10.7 81 1.7 NW 63 82 34 44 1002.4 - 1.4
30/08:30pm 14.2 2.2 11.0 81 1.7 NW 65 82 35 44 1002.4 - 1.4
30/08:04pm 14.4 5.0 11.4 82 1.6 NW 52 70 28 38 1002.3 - 1.4
30/08:00pm 14.3 4.8 11.3 82 1.6 NW 52 65 28 35 1002.3 1002.4 1.4
30/07:30pm 14.0 4.1 11.2 83 1.5 NW 54 72 29 39 1002.5 - 1.4
30/07:12pm 13.9 3.4 11.1 83 1.5 NW 57 78 31 42 1002.7 - 1.4
30/07:00pm 13.8 3.3 11.0 83 1.5 NW 57 70 31 38 1002.8 1002.9 1.4
30/06:31pm 14.0 3.4 11.9 87 1.1 NW 59 82 32 44 1002.7 - 1.2
30/06:30pm 14.1 3.5 12.0 87 1.1 NW 59 82 32 44 1002.7 - 1.2
30/06:21pm 14.1 4.0 11.8 86 1.2 NW 56 76 30 41 1002.7 - 1.2
30/06:00pm 14.2 4.4 11.5 84 1.5 NW 54 70 29 38 1002.9 1003.0 1.2
30/05:30pm 14.3 5.3 11.6 84 1.4 NW 50 69 27 37 1002.8 - 1.2
30/05:26pm 14.5 5.5 11.5 82 1.6 NW 50 69 27 37 1002.8 - 1.2
30/05:00pm 14.6 5.3 11.7 83 1.6 NW 52 65 28 35 1003.0 1003.1 1.2
30/04:32pm 14.5 6.2 11.3 81 1.7 NW 46 67 25 36 1003.2 - 1.2
30/04:30pm 14.5 6.2 11.5 82 1.6 NW 46 63 25 34 1003.2 - 1.2
30/04:03pm 14.6 5.8 11.0 79 1.9 WNW 48 67 26 36 1003.5 - 1.2
30/04:00pm 14.6 5.9 11.2 80 1.8 WNW 48 59 26 32 1003.6 1003.7 1.2
30/03:30pm 14.8 4.5 11.8 82 1.6 WNW 57 78 31 42 1003.7 - 1.2
30/03:00pm 14.7 5.4 11.8 83 1.6 WNW 52 74 28 40 1003.6 1003.7 1.2
30/02:54pm 14.8 5.7 12.5 86 1.3 WNW 52 70 28 38 1003.7 - 1.2
30/02:30pm 14.0 5.3 12.7 92 0.7 WNW 50 67 27 36 1003.4 - 1.2
30/02:10pm 13.8 6.5 12.7 93 0.6 WNW 43 65 23 35 1003.4 - 1.2
30/02:00pm 13.8 6.9 12.7 93 0.6 WNW 41 50 22 27 1003.7 1003.8 1.2
30/01:40pm 14.2 6.7 12.1 87 1.1 WNW 43 56 23 30 1003.7 - 1.0
30/01:30pm 14.5 6.6 11.6 83 1.6 WNW 44 61 24 33 1003.8 - 1.0
30/01:00pm 14.9 6.8 13.3 90 0.9 WNW 48 61 26 33 1004.5 1004.6 1.0
30/12:30pm 13.4 4.1 12.0 91 0.8 WNW 52 65 28 35 1005.0 - 1.0
30/12:25pm 14.0 5.1 12.0 88 1.1 NW 50 63 27 34 1005.1 - 0.4
30/12:00pm 15.1 5.5 12.2 83 1.6 NW 54 63 29 34 1005.3 1005.4 0.2
30/11:36am 14.6 5.9 12.5 87 1.1 NW 50 69 27 37 1005.6 - 0.2
30/11:30am 14.3 4.8 12.3 88 1.1 NW 54 69 29 37 1005.6 - 0.2
30/11:00am 14.3 5.7 11.6 84 1.5 NW 48 61 26 33 1006.0 1006.1 0.2
30/10:38am 14.2 6.6 11.9 86 1.2 WNW 43 61 23 33 1006.2 - 0.2
30/10:33am 14.0 5.0 11.5 85 1.3 WNW 50 61 27 33 1006.2 - 0.2
30/10:30am 13.9 4.5 11.4 85 1.3 WNW 52 70 28 38 1006.2 - 0.2
30/10:22am 13.9 5.7 11.6 86 1.2 WNW 46 70 25 38 1006.1 - 0.2
30/10:20am 13.8 5.5 11.5 86 1.2 WNW 46 59 25 32 1006.1 - 0.2
30/10:00am 14.5 4.4 10.5 77 2.1 WNW 54 67 29 36 1006.3 1006.4 0.0
30/09:42am 14.3 4.2 10.5 78 2.0 NW 54 72 29 39 1006.2 - 0.0
30/09:30am 14.1 5.4 11.4 84 1.4 WNW 48 65 26 35 1006.3 - 0.0
30/09:00am 13.8 3.5 9.5 75 2.2 WNW 54 72 29 39 1006.4 1006.5 11.0
30/08:51am 13.8 4.7 10.0 78 2.0 NW 48 67 26 36 1006.2 - 11.0
30/08:30am 13.5 4.6 10.5 82 1.6 NW 48 65 26 35 1006.1 - 10.8
30/08:00am 13.2 4.9 10.0 81 1.7 WNW 44 63 24 34 1006.2 1006.3 10.8
30/07:34am 13.0 4.6 9.6 80 1.7 WNW 44 67 24 36 1005.9 - 10.8
30/07:30am 13.2 4.9 10.0 81 1.7 WNW 44 56 24 30 1006.0 - 10.8
30/07:00am 13.2 3.3 9.6 79 1.8 WNW 52 76 28 41 1006.0 1006.1 10.8
30/06:42am 13.0 4.6 9.8 81 1.6 WNW 44 63 24 34 1005.5 - 10.8
30/06:30am 12.8 5.9 10.2 84 1.3 WNW 37 52 20 28 1005.5 - 10.8
30/06:08am 12.0 5.9 9.7 86 1.2 WNW 32 50 17 27 1005.5 - 10.8
30/06:00am 12.2 6.3 10.6 90 0.8 W 32 46 17 25 1005.6 1005.7 10.8
30/05:36am 11.9 4.8 10.8 93 0.6 W 39 57 21 31 1005.7 - 10.8
30/05:30am 11.7 3.7 10.4 92 0.7 W 43 57 23 31 1005.7 - 10.8
30/05:00am 12.5 4.4 10.7 89 0.9 WNW 44 59 24 32 1005.8 1005.9 10.4
30/04:55am 12.6 4.2 9.8 83 1.4 WNW 44 59 24 32 1005.7 - 10.0
30/04:30am 13.1 5.3 8.4 73 2.3 WNW 39 52 21 28 1005.5 - 9.8
30/04:00am 13.0 4.8 8.3 73 2.3 WNW 41 56 22 30 1005.8 1005.9 9.8
30/03:34am 13.1 5.1 7.5 69 2.7 W 39 57 21 31 1006.1 - 9.8
30/03:30am 13.0 5.1 7.9 71 2.5 W 39 54 21 29 1006.1 - 9.8
30/03:25am 13.0 5.2 8.1 72 2.4 W 39 57 21 31 1006.2 - 9.8
30/03:00am 13.0 4.9 8.5 74 2.3 W 41 57 22 31 1006.1 1006.2 9.8
30/02:30am 13.2 4.7 9.1 76 2.1 W 44 65 24 35 1006.4 - 9.8
30/02:00am 13.1 4.6 8.6 74 2.3 W 43 61 23 33 1006.0 1006.1 9.8
30/01:48am 13.4 5.0 9.1 75 2.2 W 43 63 23 34 1005.9 - 9.8
30/01:30am 13.3 6.9 9.2 76 2.1 W 33 44 18 24 1005.8 - 9.8
30/01:00am 13.4 3.1 8.3 71 2.6 W 52 70 28 38 1005.5 1005.6 9.8
30/12:31am 13.7 4.8 9.2 74 2.3 W 46 65 25 35 1005.3 - 9.8
30/12:30am 13.5 4.5 9.0 74 2.3 W 46 61 25 33 1005.2 - 9.8
30/12:00am 13.7 5.3 9.0 73 2.4 W 43 69 23 37 1004.9 1005.0 9.8
 
Date/Time
EST
Temp
°C
App
Temp
°C
Dew
Point
Rel
Hum
%
Delta-T
°C
Wind Press
QNH
hPa
Press
MSL
hPa
Rain
since 9 am
mm
Dir
 
Spd
km/h
Gust
km/h
Spd
kts
Gust
kts
29/11:30pm 13.9 4.6 9.1 73 2.4 W 48 74 26 40 1004.7 - 9.8
29/11:00pm 14.0 3.7 9.6 75 2.3 W 54 76 29 41 1004.5 1004.6 9.8
29/10:30pm 14.1 3.6 10.3 78 2.0 WNW 56 78 30 42 1003.9 - 9.8
29/10:00pm 13.7 4.5 9.6 76 2.1 WNW 48 74 26 40 1003.7 1003.8 9.8
29/09:30pm 13.7 4.9 9.4 75 2.2 W 46 67 25 36 1003.8 - 9.8
29/09:00pm 13.7 4.9 9.4 75 2.2 W 46 69 25 37 1003.5 1003.6 9.8
29/08:30pm 13.8 3.3 9.0 73 2.4 W 54 78 29 42 1003.3 - 9.8
29/08:00pm 13.8 3.2 8.6 71 2.6 WNW 54 74 29 40 1002.8 1002.9 9.8
29/07:30pm 13.4 4.4 8.7 73 2.4 W 46 72 25 39 1002.3 - 9.8
29/07:00pm 14.0 3.8 10.0 77 2.1 W 54 82 29 44 1002.0 1002.1 9.8
29/06:30pm 14.0 4.1 9.8 76 2.2 W 52 72 28 39 1001.5 - 9.8
29/06:00pm 13.8 2.5 9.5 75 2.2 W 59 83 32 45 1001.1 1001.2 9.8
29/05:30pm 13.6 4.9 12.5 93 0.6 WNW 50 78 27 42 1000.5 - 9.8
29/05:00pm 14.0 4.1 12.4 90 0.9 WNW 56 74 30 40 999.9 999.9 8.6
29/04:59pm 14.1 4.2 12.3 89 1.0 WNW 56 74 30 40 999.9 - 8.4
29/04:58pm 14.2 4.1 12.2 88 1.1 WNW 57 74 31 40 999.9 - 8.2
29/04:30pm 14.4 3.8 12.1 86 1.2 WNW 59 80 32 43 999.4 - 7.8
29/04:00pm 14.7 3.0 12.0 84 1.5 WNW 65 83 35 45 998.9 998.9 7.8
29/03:30pm 14.8 3.0 11.8 82 1.6 WNW 65 85 35 46 998.8 - 7.8
29/03:00pm 14.4 3.2 12.3 87 1.1 WNW 63 83 34 45 998.7 998.7 7.8
29/02:30pm 14.9 2.4 11.9 82 1.6 WNW 69 91 37 49 998.7 - 7.8
29/02:01pm 14.7 3.6 11.7 82 1.6 WNW 61 80 33 43 998.3 - 7.8
29/02:00pm 14.6 3.1 11.6 82 1.6 WNW 63 80 34 43 998.3 998.3 7.8
29/01:30pm 14.5 2.8 10.9 79 1.9 WNW 63 82 34 44 998.8 - 7.8
29/01:00pm 14.4 3.3 11.6 83 1.5 WNW 61 80 33 43 999.1 999.1 7.8
29/12:30pm 14.4 3.7 11.7 84 1.5 WNW 59 80 32 43 999.4 - 7.8
29/12:00pm 14.4 4.1 11.7 84 1.5 NW 57 76 31 41 999.6 999.6 7.8
29/11:34am 14.3 5.3 12.7 90 0.9 WNW 52 70 28 38 1000.0 - 7.8
29/11:30am 14.3 4.9 12.7 90 0.9 WNW 54 70 29 38 1000.1 - 7.8
29/11:00am 14.5 3.8 11.6 83 1.6 WNW 59 78 32 42 1000.4 1000.4 7.4
29/10:30am 12.6 1.6 12.0 96 0.3 WNW 61 96 33 52 1000.4 - 7.4
29/10:00am 12.6 1.4 11.2 91 0.7 WNW 61 82 33 44 1000.6 1000.6 1.2
29/09:54am 13.5 2.4 11.4 87 1.1 NW 61 82 33 44 1000.4 - 0.2
29/09:30am 14.4 3.5 12.1 86 1.2 NW 61 93 33 50 1000.0 - 0.0
29/09:24am 13.9 3.9 12.1 89 1.0 NW 56 78 30 42 999.7 - 0.0
29/09:20am 13.8 3.8 12.2 90 0.9 NW 56 70 30 38 1000.0 - 0.0
29/09:00am 14.4 3.7 11.7 84 1.5 NW 59 78 32 42 1000.0 1000.0 6.6
29/08:30am 14.3 4.1 11.5 83 1.5 NW 56 74 30 40 1000.5 - 6.6
29/08:00am 13.8 3.3 11.1 84 1.4 NW 57 76 31 41 1000.6 1000.6 6.6
29/07:39am 13.1 3.3 11.5 90 0.9 WNW 54 72 29 39 1000.9 - 6.6
29/07:30am 12.5 3.7 11.1 91 0.7 WNW 48 63 26 34 1000.9 - 6.6
29/07:18am 11.3 1.5 10.0 92 0.7 WNW 52 76 28 41 1001.1 - 6.6
29/07:15am 11.9 3.4 10.6 92 0.7 WNW 46 65 25 35 1001.5 - 6.4
29/07:11am 13.7 5.8 12.6 93 0.6 NW 46 54 25 29 1001.1 - 4.6
29/07:00am 13.9 2.3 12.3 90 0.9 NW 65 83 35 45 1000.7 1000.7 4.2
29/06:34am 14.0 2.0 12.4 90 0.9 NW 67 100 36 54 1000.1 - 4.2
29/06:30am 13.9 3.1 12.5 91 0.8 NW 61 82 33 44 999.6 - 4.0
29/06:00am 13.3 3.3 11.9 91 0.8 NW 56 74 30 40 1000.0 1000.0 4.0
29/05:30am 13.5 3.3 12.1 91 0.8 NW 57 78 31 42 1000.4 - 3.8
29/05:00am 13.5 3.8 11.9 90 0.9 NNW 54 72 29 39 1000.7 1000.7 3.8
29/04:30am 13.5 2.4 11.7 89 1.0 NNW 61 83 33 45 1000.8 - 3.8
29/04:00am 13.4 3.7 11.8 90 0.9 NNW 54 72 29 39 1001.2 1001.3 3.2
29/03:38am 13.3 3.0 11.7 90 0.9 NNW 57 76 31 41 1001.6 - 3.2
29/03:30am 13.6 2.9 11.7 88 1.0 NNW 59 76 32 41 1001.7 - 3.2
29/03:00am 13.7 3.0 11.6 87 1.1 NNW 59 82 32 44 1002.0 1002.1 3.2
29/02:30am 13.6 2.8 11.3 86 1.2 NNW 59 80 32 43 1002.4 - 3.2
29/02:00am 13.4 2.7 11.5 88 1.0 NNW 59 78 32 42 1002.9 1003.0 3.2
29/01:30am 13.6 3.8 11.5 87 1.1 NNW 54 74 29 40 1003.3 - 3.0
29/01:00am 13.5 3.3 11.4 87 1.1 NNW 56 76 30 41 1003.9 1004.0 3.0
29/12:52am 13.4 3.6 11.3 87 1.1 NNW 54 74 29 40 1004.2 - 3.0
29/12:30am 13.3 3.9 11.4 88 1.0 NNW 52 63 28 34 1004.6 - 3.0
29/12:19am 13.3 4.3 11.5 89 1.0 NNW 50 69 27 37 1004.8 - 3.0
29/12:00am 12.5 5.3 10.7 89 0.9 NW 39 50 21 27 1005.2 1005.3 2.8
 
Date/Time
EST
Temp
°C
App
Temp
°C
Dew
Point
Rel
Hum
%
Delta-T
°C
Wind Press
QNH
hPa
Press
MSL
hPa
Rain
since 9 am
mm
Dir
 
Spd
km/h
Gust
km/h
Spd
kts
Gust
kts
28/11:30pm 12.0 4.0 10.4 90 0.8 NNW 43 56 23 30 1005.9 - 2.8
28/11:00pm 12.1 3.9 10.5 90 0.8 NNW 44 56 24 30 1006.7 1006.8 2.8
28/10:30pm 12.3 4.0 10.0 86 1.2 NNW 44 56 24 30 1006.9 - 2.8
28/10:00pm 12.2 3.0 9.6 84 1.3 NNW 48 61 26 33 1006.9 1007.0 2.8
28/09:30pm 12.5 2.2 9.5 82 1.5 NW 54 74 29 40 1007.3 - 2.8
28/09:02pm 13.5 3.9 10.9 84 1.4 NW 52 76 28 41 1007.1 - 2.8
28/09:00pm 13.6 4.8 11.1 85 1.3 NW 48 65 26 35 1007.2 1007.3 2.8
28/08:30pm 14.2 4.7 11.2 82 1.6 NW 52 70 28 38 1007.0 - 2.6
28/08:09pm 14.2 5.5 11.4 83 1.5 NW 48 70 26 38 1006.9 - 2.6
28/08:00pm 14.1 5.4 11.4 84 1.4 NW 48 63 26 34 1006.8 1006.9 2.6
28/07:30pm 14.0 5.3 11.3 84 1.4 NW 48 67 26 36 1006.9 - 2.6
28/07:06pm 13.9 5.1 11.1 83 1.5 NW 48 70 26 38 1007.2 - 2.6
28/07:00pm 14.1 5.8 11.3 83 1.5 NW 46 63 25 34 1007.2 1007.3 2.6
28/06:32pm 13.9 5.5 11.2 84 1.4 NW 46 59 25 32 1007.3 - 2.4
28/06:30pm 13.8 6.0 11.3 85 1.3 NW 43 57 23 31 1007.3 - 2.4
28/06:21pm 13.7 5.4 11.4 86 1.2 NW 46 65 25 35 1007.2 - 2.4
28/06:11pm 14.0 5.5 10.8 81 1.7 NW 46 65 25 35 1007.4 - 2.2
28/06:00pm 14.0 4.9 11.2 83 1.5 NW 50 65 27 35 1007.3 1007.4 2.2
28/05:30pm 14.0 6.2 11.2 83 1.5 NW 43 56 23 30 1007.2 - 2.2
28/05:09pm 14.2 5.6 11.5 84 1.4 NW 48 67 26 36 1007.2 - 2.2
28/05:00pm 14.1 4.6 11.3 83 1.5 NW 52 69 28 37 1007.3 1007.4 2.2
28/04:36pm 14.0 4.1 11.2 83 1.5 NW 54 72 29 39 1007.3 - 2.2
28/04:30pm 14.2 4.6 10.8 80 1.8 NW 52 69 28 37 1007.2 - 2.0
28/04:16pm 14.3 5.9 10.9 80 1.8 NW 46 72 25 39 1007.3 - 2.0
28/04:00pm 14.2 5.4 11.0 81 1.7 NW 48 63 26 34 1007.5 1007.6 2.0
28/03:51pm 14.1 6.1 11.1 82 1.6 NW 44 63 24 34 1007.5 - 2.0
28/03:30pm 14.1 6.5 11.8 86 1.2 NW 43 56 23 30 1007.7 - 2.0
28/03:00pm 13.9 6.6 11.6 86 1.2 NW 41 52 22 28 1007.6 1007.7 2.0
28/02:30pm 13.5 6.0 12.2 92 0.7 NW 43 56 23 30 1008.0 - 2.0
28/02:16pm 13.4 5.9 12.0 91 0.8 NW 43 61 23 33 1008.1 - 2.0
28/02:00pm 12.7 6.5 11.4 92 0.7 NW 35 48 19 26 1008.3 1008.4 2.0
28/01:31pm 13.2 6.7 11.6 90 0.9 NW 37 50 20 27 1008.8 - 1.4
28/01:30pm 13.2 6.6 11.4 89 1.0 NW 37 50 20 27 1008.8 - 1.4
28/01:08pm 13.7 7.8 12.3 91 0.8 NW 35 50 19 27 1009.3 - 1.4
28/01:07pm 13.6 7.6 12.2 91 0.8 NW 35 50 19 27 1009.3 - 1.4
28/01:00pm 13.8 7.4 12.0 89 1.0 NW 37 48 20 26 1009.4 1009.5 1.4
28/12:57pm 13.7 7.3 11.9 89 1.0 NW 37 50 20 27 1009.5 - 1.4
28/12:30pm 14.4 7.3 12.1 86 1.2 NW 41 54 22 29 1010.1 - 1.4
28/12:00pm 14.2 6.3 11.5 84 1.4 NW 44 56 24 30 1010.4 1010.4 1.4
28/11:30am 14.2 7.1 12.2 88 1.1 NW 41 56 22 30 1010.8 - 1.4
28/11:00am 13.6 6.8 12.0 90 0.9 NW 39 54 21 29 1011.1 1011.1 1.4
28/10:37am 13.3 6.5 12.0 92 0.7 NW 39 57 21 31 1011.1 - 1.4
28/10:30am 13.3 7.3 12.2 93 0.6 NW 35 46 19 25 1011.1 - 1.4
28/10:00am 13.2 6.0 11.8 91 0.7 NW 41 50 22 27 1011.1 1011.1 0.6
28/09:30am 13.4 8.0 12.1 92 0.7 NW 32 41 17 22 1011.0 - 0.4
28/09:00am 13.6 8.0 12.2 91 0.8 NW 33 44 18 24 1011.1 1011.1 0.6
28/08:30am 13.4 6.2 11.8 90 0.9 NW 41 54 22 29 1011.0 - 0.2
28/08:00am 13.6 6.3 11.5 87 1.1 NW 41 54 22 29 1011.2 1011.2 0.0
28/07:30am 13.4 5.6 11.1 86 1.2 NW 43 50 23 27 1011.3 - 0.0
28/07:00am 13.5 6.5 11.4 87 1.1 NW 39 54 21 29 1011.1 1011.1 0.0
28/06:30am 13.5 5.8 11.4 87 1.1 NNW 43 56 23 30 1011.0 - 0.0
28/06:00am 13.5 6.5 11.4 87 1.1 NW 39 50 21 27 1011.2 1011.2 0.0
28/05:30am 13.4 6.8 11.3 87 1.1 NW 37 52 20 28 1011.3 - 0.0

Other Formats:

Comma delimited format used in spreadsheet applications
http://www.bom.gov.au/fwo/IDT60801/IDT60801.94850.axf

JavaScript Object Notation format (JSON) in row-major order
http://www.bom.gov.au/fwo/IDT60801/IDT60801.94850.json